createdAt,value
2023-01-03T00:00:24.166Z,13.80
2023-01-03T00:05:27.359Z,13.80
2023-01-03T00:10:32.109Z,13.80
2023-01-03T00:15:36.500Z,13.70
2023-01-03T00:20:39.647Z,13.70
2023-01-03T00:25:44.087Z,13.60
2023-01-03T00:30:47.156Z,13.70
2023-01-03T00:35:50.257Z,13.60
2023-01-03T00:40:54.746Z,13.60
2023-01-03T00:45:57.902Z,13.60
2023-01-03T00:51:07.267Z,13.50
2023-01-03T00:56:14.730Z,13.50
2023-01-03T01:01:20.413Z,13.40
2023-01-03T01:06:26.665Z,13.40
2023-01-03T01:11:31.952Z,13.40
2023-01-03T01:16:35.097Z,13.40
2023-01-03T01:21:38.213Z,13.40
2023-01-03T01:26:42.769Z,13.40
2023-01-03T01:31:47.139Z,13.40
2023-01-03T01:36:50.458Z,13.40
2023-01-03T01:42:19.304Z,13.30
2023-01-03T01:47:35.106Z,13.30
2023-01-03T01:52:41.868Z,13.30
2023-01-03T01:57:46.810Z,13.20
2023-01-03T02:02:53.145Z,13.20
2023-01-03T02:07:56.924Z,13.20
2023-01-03T02:13:10.271Z,13.10
2023-01-03T02:18:23.896Z,13.10
2023-01-03T02:23:56.467Z,13.10
2023-01-03T02:29:34.888Z,13.10
2023-01-03T02:34:46.548Z,13.10
2023-01-03T02:39:55.947Z,13.10
2023-01-03T02:45:07.683Z,13.10
2023-01-03T02:50:13.379Z,13.10
2023-01-03T02:55:21.101Z,13.10
2023-01-03T03:00:29.499Z,13.00
2023-01-03T03:05:38.392Z,13.10
2023-01-03T03:11:11.809Z,13.00
2023-01-03T03:16:41.398Z,13.00
2023-01-03T03:22:05.150Z,13.00
2023-01-03T03:27:26.138Z,12.90
2023-01-03T03:32:31.163Z,12.80
2023-01-03T03:37:39.419Z,12.80
2023-01-03T03:43:02.889Z,12.70
2023-01-03T03:48:13.163Z,12.60
2023-01-03T03:53:21.987Z,12.60
2023-01-03T03:58:30.382Z,12.60
2023-01-03T04:03:34.537Z,12.60
2023-01-03T04:08:39.057Z,12.70
2023-01-03T04:13:42.396Z,12.70
2023-01-03T04:18:45.465Z,12.70
2023-01-03T04:23:50.218Z,12.70
2023-01-03T04:28:53.315Z,12.60
2023-01-03T04:33:56.378Z,12.60
2023-01-03T04:39:00.846Z,12.60
2023-01-03T04:44:04.894Z,12.50
2023-01-03T04:49:10.779Z,12.50
2023-01-03T04:54:15.211Z,12.50
2023-01-03T04:59:18.275Z,12.50
2023-01-03T05:04:21.637Z,12.50
2023-01-03T05:09:28.057Z,12.50
2023-01-03T05:14:31.158Z,12.40
2023-01-03T05:19:34.284Z,12.40
2023-01-03T05:24:56.424Z,12.40
2023-01-03T05:29:59.607Z,12.40
2023-01-03T05:35:02.708Z,12.40
2023-01-03T05:40:08.701Z,12.40
2023-01-03T05:45:12.518Z,12.30
2023-01-03T05:50:15.590Z,12.30
2023-01-03T05:55:20.082Z,12.30
2023-01-03T06:00:23.515Z,12.30
2023-01-03T06:05:26.713Z,12.30
2023-01-03T06:10:31.193Z,12.30
2023-01-03T06:15:34.358Z,12.20
2023-01-03T06:20:37.422Z,12.10
2023-01-03T06:25:41.862Z,12.10
2023-01-03T06:30:44.960Z,12.10
2023-01-03T06:35:48.086Z,12.00
2023-01-03T06:40:52.529Z,12.10
2023-01-03T06:46:13.569Z,12.10
2023-01-03T06:51:38.064Z,12.10
2023-01-03T06:56:42.513Z,12.10
2023-01-03T07:01:45.954Z,12.10
2023-01-03T07:06:49.527Z,12.10
2023-01-03T07:11:54.071Z,12.10
2023-01-03T07:16:57.182Z,12.00
2023-01-03T07:22:00.366Z,12.00
2023-01-03T07:27:04.977Z,11.90
2023-01-03T07:32:08.067Z,11.80
2023-01-03T07:37:11.270Z,11.80
2023-01-03T07:42:34.206Z,11.80
2023-01-03T07:47:37.296Z,11.80
2023-01-03T07:52:40.455Z,11.80
2023-01-03T07:57:44.894Z,11.80
2023-01-03T08:02:48.737Z,11.80
2023-01-03T08:07:53.568Z,11.80
2023-01-03T08:13:15.392Z,11.80
2023-01-03T08:18:21.147Z,11.80
2023-01-03T08:23:24.554Z,11.80
2023-01-03T08:28:29.170Z,11.80
2023-01-03T08:33:38.171Z,11.80
2023-01-03T08:38:45.448Z,11.80
2023-01-03T08:43:50.378Z,11.80
2023-01-03T08:48:53.626Z,11.90
2023-01-03T08:53:56.782Z,11.90
2023-01-03T08:59:01.230Z,11.80
2023-01-03T09:04:05.541Z,11.90
2023-01-03T09:09:09.757Z,11.80
2023-01-03T09:14:14.456Z,11.80
2023-01-03T09:19:17.817Z,11.80
2023-01-03T09:24:20.944Z,11.80
2023-01-03T09:29:25.403Z,11.80
2023-01-03T09:34:28.587Z,11.80
2023-01-03T09:39:31.679Z,11.80
2023-01-03T09:44:36.246Z,11.90
2023-01-03T09:49:57.667Z,11.90
2023-01-03T09:55:23.550Z,11.90
2023-01-03T10:00:47.093Z,11.90
2023-01-03T10:06:05.829Z,12.00
2023-01-03T10:11:10.817Z,12.00
2023-01-03T10:16:25.390Z,12.00
2023-01-03T10:21:38.205Z,12.10
2023-01-03T10:26:41.346Z,12.10
2023-01-03T10:32:01.988Z,12.20
2023-01-03T10:37:17.343Z,12.30
2023-01-03T10:42:20.581Z,12.40
2023-01-03T10:47:27.770Z,12.50
2023-01-03T10:52:34.438Z,12.50
2023-01-03T10:57:40.561Z,12.50
2023-01-03T11:02:49.262Z,12.50
2023-01-03T11:07:56.270Z,12.50
2023-01-03T11:13:00.120Z,12.50
2023-01-03T11:18:10.664Z,12.40
2023-01-03T11:23:17.625Z,12.40
2023-01-03T11:28:47.981Z,12.30
2023-01-03T11:34:07.394Z,12.20
2023-01-03T11:39:33.476Z,12.10
2023-01-03T11:45:11.864Z,12.10
2023-01-03T11:50:28.623Z,12.10
2023-01-03T11:55:55.854Z,12.20
2023-01-03T12:01:08.016Z,12.20
2023-01-03T12:06:22.394Z,12.30
2023-01-03T12:11:48.461Z,12.30
2023-01-03T12:16:58.301Z,12.30
2023-01-03T12:22:08.039Z,12.40
2023-01-03T12:27:15.759Z,12.40
2023-01-03T12:32:24.722Z,12.40
2023-01-03T12:37:34.770Z,12.40
2023-01-03T12:42:41.998Z,12.40
2023-01-03T12:47:51.680Z,12.40
2023-01-03T12:53:03.850Z,12.40
2023-01-03T12:58:37.167Z,12.50
2023-01-03T13:03:47.180Z,12.40
2023-01-03T13:08:57.563Z,12.40
2023-01-03T13:14:06.632Z,12.40
2023-01-03T13:19:55.420Z,12.40
2023-01-03T13:25:30.575Z,12.40
2023-01-03T13:30:35.686Z,12.50
2023-01-03T13:35:54.501Z,12.50
2023-01-03T13:41:17.714Z,12.50
2023-01-03T13:46:24.738Z,12.50
2023-01-03T13:51:52.014Z,12.50
2023-01-03T13:57:04.134Z,12.60
2023-01-03T14:02:45.719Z,12.60
2023-01-03T14:08:15.226Z,12.60
2023-01-03T14:13:42.274Z,12.60
2023-01-03T14:18:50.282Z,12.60
2023-01-03T14:24:01.252Z,12.60
2023-01-03T14:29:11.163Z,12.60
2023-01-03T14:34:23.074Z,12.60
2023-01-03T14:44:37.047Z,12.70
2023-01-03T14:49:46.038Z,12.80
2023-01-03T14:54:54.504Z,12.80
2023-01-03T15:00:02.145Z,12.70
2023-01-03T15:05:06.282Z,12.70
2023-01-03T15:10:19.489Z,12.60
2023-01-03T15:15:28.441Z,12.60
2023-01-03T15:20:37.225Z,12.70
2023-01-03T15:25:42.800Z,12.60
2023-01-03T15:31:29.683Z,12.60
2023-01-03T15:36:34.085Z,12.60
2023-01-03T15:42:34.569Z,12.60
2023-01-03T15:47:25.055Z,12.60
2023-01-03T15:52:28.909Z,12.50
2023-01-03T15:57:32.354Z,12.50
2023-01-03T16:02:36.968Z,12.40
2023-01-03T16:07:40.336Z,12.40
2023-01-03T16:12:44.444Z,12.30
2023-01-03T16:17:49.876Z,12.30
2023-01-03T16:23:01.134Z,12.10
2023-01-03T16:28:11.924Z,12.00
2023-01-03T16:33:21.140Z,12.00
2023-01-03T16:38:25.666Z,11.80
2023-01-03T16:43:29.162Z,11.70
2023-01-03T16:48:39.216Z,11.60
2023-01-03T16:53:42.361Z,11.50
2023-01-03T16:58:45.799Z,11.40
2023-01-03T17:03:50.404Z,11.30
2023-01-03T17:08:53.751Z,11.20
2023-01-03T17:14:00.831Z,11.00
2023-01-03T17:19:05.278Z,10.90
2023-01-03T17:24:14.426Z,10.80
2023-01-03T17:29:20.180Z,10.60
2023-01-03T17:34:27.410Z,10.50
2023-01-03T17:39:30.680Z,10.40
2023-01-03T17:44:33.751Z,10.40
2023-01-03T17:49:38.217Z,10.30
2023-01-03T17:54:42.214Z,10.20
2023-01-03T17:59:45.349Z,10.10
2023-01-03T18:05:15.896Z,10.00
2023-01-03T18:10:17.269Z,9.90
2023-01-03T18:15:22.882Z,9.80
2023-01-03T18:20:28.089Z,9.60
2023-01-03T18:25:31.201Z,9.50
2023-01-03T18:30:34.292Z,9.40
2023-01-03T18:35:38.812Z,9.40
2023-01-03T18:40:42.732Z,9.30
2023-01-03T18:45:45.784Z,9.30
2023-01-03T18:50:58.303Z,9.20
2023-01-03T18:56:03.059Z,9.20
2023-01-03T19:01:07.264Z,9.10
2023-01-03T19:06:18.764Z,9.10
2023-01-03T19:11:28.510Z,9.00
2023-01-03T19:16:33.425Z,8.90
2023-01-03T19:21:40.945Z,8.90
2023-01-03T19:26:47.960Z,8.90
2023-01-03T19:31:53.708Z,8.80
2023-01-03T19:36:59.249Z,8.80
2023-01-03T19:42:20.342Z,8.60
2023-01-03T19:47:23.462Z,8.50
2023-01-03T19:52:28.263Z,8.30
2023-01-03T19:57:34.959Z,8.10
2023-01-03T20:02:40.821Z,8.00
2023-01-03T20:07:46.673Z,7.80
2023-01-03T20:12:53.343Z,7.70
2023-01-03T20:17:57.629Z,7.50
2023-01-03T20:23:07.140Z,7.40
2023-01-03T20:28:17.622Z,7.30
2023-01-03T20:33:22.701Z,7.20
2023-01-03T20:38:27.585Z,7.10
2023-01-03T20:43:30.804Z,7.10
2023-01-03T20:48:34.087Z,7.10
2023-01-03T20:53:42.845Z,7.10
2023-01-03T20:58:46.602Z,7.20
2023-01-03T21:03:49.744Z,7.20
2023-01-03T21:08:58.123Z,7.20
2023-01-03T21:14:02.825Z,7.20
2023-01-03T21:19:08.797Z,7.20
2023-01-03T21:24:15.234Z,7.00
2023-01-03T21:29:18.426Z,6.90
2023-01-03T21:34:22.756Z,6.80
2023-01-03T21:39:27.437Z,6.60
2023-01-03T21:44:30.582Z,6.60
2023-01-03T21:49:34.065Z,6.60
2023-01-03T21:54:38.588Z,6.60
2023-01-03T21:59:41.780Z,6.60
2023-01-03T22:04:46.991Z,6.50
2023-01-03T22:10:09.012Z,6.50
2023-01-03T22:15:12.690Z,6.40
2023-01-03T22:20:19.184Z,6.40
2023-01-03T22:25:24.579Z,6.30
2023-01-03T22:30:27.979Z,6.20
2023-01-03T22:35:31.157Z,6.20
2023-01-03T22:40:35.713Z,6.30
2023-01-03T22:45:40.094Z,6.20
2023-01-03T22:50:43.482Z,6.10
2023-01-03T22:55:47.948Z,6.10
2023-01-03T23:00:51.072Z,5.90
2023-01-03T23:05:54.198Z,5.90
2023-01-03T23:11:19.471Z,5.80
2023-01-03T23:16:22.681Z,5.70
2023-01-03T23:21:26.048Z,5.70
2023-01-03T23:26:30.605Z,5.80
2023-01-03T23:31:33.705Z,5.90
2023-01-03T23:36:36.921Z,5.90
2023-01-03T23:41:41.438Z,5.90
2023-01-03T23:46:44.775Z,5.90
2023-01-03T23:51:48.017Z,6.00
2023-01-03T23:56:52.501Z,6.00
